Time;durP1;ratioP1;P1;durP2;ratioP2;P2;SDS_P1;SDS_P2;PMS_P1;PMS_P2;Temp;Humidity;BMP_temperature;BMP_pressure;BME280_temperature;BME280_humidity;BME280_pressure;Samples;Min_cycle;Max_cycle;Signal;HPM_P1;HPM_P2
2021/06/18 00:00:50;;;;;;;12.95;8.55;;;20.80;99.90;;;20.21;74.03;97255.00;5026879;28;20128;-68
2021/06/18 00:03:37;;;;;;;13.45;9.07;;;20.80;99.90;;;20.27;74.93;97250.03;5031008;28;20037;-68
2021/06/18 00:06:24;;;;;;;14.20;9.60;;;20.70;99.90;;;20.10;74.43;97242.75;5047589;28;20159;-68
2021/06/18 00:09:12;;;;;;;13.25;8.80;;;20.70;99.90;;;20.24;74.04;97239.75;5048857;28;20049;-68
2021/06/18 00:11:59;;;;;;;12.40;8.45;;;20.70;99.90;;;20.22;74.32;97236.41;5040287;28;20107;-68
2021/06/18 00:14:47;;;;;;;9.68;7.57;;;20.70;99.90;;;20.34;73.47;97236.31;5043115;28;20045;-68
2021/06/18 00:17:35;;;;;;;11.82;9.70;;;20.70;99.90;;;19.97;77.13;97242.16;5045726;28;20535;-68
2021/06/18 00:20:22;;;;;;;16.83;11.43;;;20.70;99.90;;;19.50;79.14;97239.94;5048066;28;20644;-69
2021/06/18 00:23:10;;;;;;;15.85;10.57;;;20.40;99.90;;;19.54;79.26;97240.50;5050642;28;20124;-68
2021/06/18 00:25:58;;;;;;;16.33;10.57;;;20.40;99.90;;;19.84;77.34;97239.72;5041116;28;20060;-67
2021/06/18 00:28:45;;;;;;;15.45;9.73;;;20.40;99.90;;;20.15;75.49;97242.34;5045908;28;20048;-68
2021/06/18 00:31:33;;;;;;;13.25;9.52;;;20.50;99.90;;;20.15;76.29;97242.34;5052183;28;20422;-68
2021/06/18 00:34:20;;;;;;;12.07;9.60;;;20.60;99.90;;;20.22;74.84;97246.94;5053304;28;20132;-67
2021/06/18 00:37:07;;;;;;;11.52;9.18;;;20.60;99.90;;;20.18;74.23;97248.19;5049265;28;20036;-68
2021/06/18 00:39:55;;;;;;;10.30;8.82;;;20.70;99.90;;;20.10;74.92;97245.38;5051793;28;20037;-69
2021/06/18 00:42:43;;;;;;;15.52;9.23;;;20.60;99.90;;;20.03;74.21;97252.16;5048041;28;20041;-69
2021/06/18 00:45:30;;;;;;;11.73;9.55;;;20.60;99.90;;;20.01;74.18;97249.66;5053701;28;20029;-69
2021/06/18 00:48:21;;;;;;;14.70;9.05;;;20.50;99.90;;;19.83;74.97;97254.69;5037464;28;20556;-69
2021/06/18 00:51:08;;;;;;;10.95;9.02;;;20.40;99.90;;;19.82;75.42;97260.94;5029775;28;20070;-69
2021/06/18 00:53:56;;;;;;;14.90;9.57;;;20.40;99.90;;;19.92;75.20;97258.34;5048542;28;20045;-69
2021/06/18 00:56:44;;;;;;;12.50;8.60;;;20.40;99.90;;;20.00;74.89;97270.84;5033061;28;20053;-68
2021/06/18 00:59:31;;;;;;;15.32;9.40;;;20.40;99.90;;;19.98;74.36;97263.09;5046634;28;20386;-69
2021/06/18 01:02:18;;;;;;;12.75;8.45;;;20.40;99.90;;;20.03;73.86;97270.59;5053409;28;20049;-67
2021/06/18 01:05:10;;;;;;;9.95;7.95;;;20.30;99.90;;;20.03;73.44;97270.59;5050334;28;20041;-67
2021/06/18 01:08:06;;;;;;;10.70;8.68;;;20.30;99.90;;;19.89;74.20;97276.19;5048399;28;20039;-67
2021/06/18 01:11:08;;;;;;;12.98;9.57;;;20.30;99.90;;;19.77;75.47;97276.28;5050390;28;20042;-69
2021/06/18 01:14:12;;;;;;;11.93;9.18;;;20.30;99.90;;;19.78;74.97;97283.22;5054956;28;20408;-69
2021/06/18 01:17:15;;;;;;;12.75;9.90;;;20.20;99.90;;;19.45;77.93;97289.47;5036292;28;20075;-68
2021/06/18 01:20:29;;;;;;;20.75;12.25;;;20.10;99.90;;;18.30;83.34;97309.28;5056473;28;20120;-67
2021/06/18 01:23:33;;;;;;;14.63;11.88;;;19.90;99.90;;;19.46;79.01;97306.97;5040642;28;20037;-68
2021/06/18 01:26:24;;;;;;;18.10;12.05;;;19.80;99.90;;;19.88;77.69;97299.06;5033202;28;20033;-68
2021/06/18 01:29:11;;;;;;;13.70;11.30;;;20.00;99.90;;;20.21;76.65;97291.91;5048297;28;20182;-67
2021/06/18 01:32:03;;;;;;;16.35;11.68;;;20.30;99.90;;;20.46;76.02;97293.25;5038306;28;20041;-67
2021/06/18 01:34:53;;;;;;;16.20;11.20;;;20.60;99.90;;;20.62;75.72;97287.50;5026338;28;20053;-67
2021/06/18 01:37:45;;;;;;;14.18;11.23;;;20.80;99.90;;;20.69;74.99;97288.59;5027989;28;20050;-69
2021/06/18 01:40:35;;;;;;;17.30;10.75;;;21.00;99.90;;;20.78;74.75;97290.44;5029878;28;20045;-69
2021/06/18 01:43:27;;;;;;;14.23;10.57;;;21.10;99.90;;;20.89;74.39;97292.94;5019578;28;20040;-68
2021/06/18 01:46:17;;;;;;;;;;;21.20;99.90;;;20.91;75.12;97294.59;5022762;28;20044;-69
2021/06/18 01:49:10;;;;;;;14.30;10.68;;;21.20;99.90;;;20.89;75.28;97292.09;5042873;28;20024;-68
2021/06/18 01:52:02;;;;;;;18.48;11.15;;;21.10;99.90;;;20.93;74.67;97292.66;5034796;28;20041;-69
2021/06/18 01:54:50;;;;;;;15.43;11.65;;;21.10;99.90;;;21.04;74.29;97288.09;5030750;28;20120;-69
2021/06/18 01:57:40;;;;;;;12.48;10.20;;;21.20;99.90;;;21.14;73.40;97285.44;5050286;28;20099;-70
2021/06/18 02:00:31;;;;;;;18.73;11.63;;;21.20;99.90;;;21.15;73.32;97292.41;5039157;28;20037;-70
2021/06/18 02:03:25;;;;;;;13.82;10.05;;;21.40;99.90;;;21.18;73.02;97280.72;5026706;28;20592;-70
2021/06/18 02:06:14;;;;;;;14.43;9.48;;;21.40;99.90;;;21.26;72.52;97281.72;5048751;28;20140;-70
2021/06/18 02:09:04;;;;;;;11.02;8.93;;;21.40;99.90;;;21.37;71.71;97286.03;5035886;28;20029;-70
2021/06/18 02:11:54;;;;;;;16.23;11.15;;;21.60;99.90;;;21.45;71.58;97285.34;5048213;28;20049;-70
2021/06/18 02:14:41;;;;;;;13.27;9.82;;;21.60;99.90;;;21.46;71.26;97274.66;5048804;28;20112;-70
2021/06/18 02:17:31;;;;;;;13.13;10.27;;;21.70;99.90;;;21.48;70.62;97283.28;5047261;28;20489;-71
2021/06/18 02:20:21;;;;;;;13.55;9.82;;;21.70;99.90;;;21.41;70.58;97284.78;5034734;28;20048;-68
2021/06/18 02:23:10;;;;;;;19.02;9.00;;;21.80;99.90;;;21.49;69.58;97284.09;5028183;28;20166;-68
2021/06/18 02:26:04;;;;;;;11.77;8.07;;;21.80;99.90;;;21.59;68.09;97295.47;5042884;28;20087;-68
2021/06/18 02:28:55;;;;;;;10.88;7.32;;;21.80;99.90;;;21.62;67.33;97289.91;5047612;28;20041;-68
2021/06/18 02:31:45;;;;;;;11.52;7.43;;;21.80;99.90;;;21.59;66.32;97292.81;5025596;28;20052;-70
2021/06/18 02:34:38;;;;;;;12.93;7.22;;;21.80;99.90;;;21.50;66.93;97280.47;5056762;28;20590;-70
2021/06/18 02:37:25;;;;;;;12.05;7.53;;;21.80;99.90;;;21.62;64.97;97294.34;5045459;28;20516;-70
2021/06/18 02:40:13;;;;;;;10.98;5.80;;;21.90;99.90;;;21.83;63.58;97291.53;5044050;28;20497;-69
2021/06/18 02:43:01;;;;;;;11.00;6.07;;;22.10;99.90;;;21.79;63.67;97303.38;5045959;28;20034;-69
2021/06/18 02:45:49;;;;;;;10.68;6.22;;;22.00;99.90;;;21.68;64.20;97291.97;5046725;28;20048;-69
2021/06/18 02:48:42;;;;;;;8.27;6.25;;;22.00;99.90;;;21.53;65.05;97298.69;5047168;28;20186;-70
2021/06/18 02:51:40;;;;;;;10.85;7.00;;;21.90;99.90;;;21.43;65.75;97292.56;5045329;28;20040;-70
2021/06/18 02:54:54;;;;;;;11.45;6.07;;;21.90;99.90;;;21.50;65.22;97304.22;5042768;28;20044;-69
2021/06/18 02:57:59;;;;;;;11.88;6.15;;;21.80;99.90;;;21.49;64.37;97297.28;5042969;28;20433;-69
2021/06/18 03:00:47;;;;;;;7.55;5.35;;;21.80;99.90;;;21.63;63.41;97306.59;5045243;28;20356;-69
2021/06/18 03:03:41;;;;;;;6.90;5.30;;;21.80;99.90;;;21.63;63.85;97301.31;5039664;28;20499;-69
2021/06/18 03:06:34;;;;;;;12.13;5.47;;;21.90;99.90;;;21.68;62.60;97297.25;5032655;28;20056;-68
2021/06/18 03:09:30;;;;;;;;;;;21.90;99.90;;;21.64;62.22;97295.88;5033914;28;20037;-70
2021/06/18 03:12:22;;;;;;;11.88;4.85;;;21.90;99.90;;;21.68;62.28;97297.25;5031681;28;19929;-69
2021/06/18 03:15:10;;;;;;;6.20;4.53;;;21.90;99.90;;;21.76;61.70;97301.84;5048100;28;20039;-69
2021/06/18 03:17:58;;;;;;;9.60;5.15;;;21.90;99.90;;;21.63;62.17;97296.03;5044933;28;20048;-69
2021/06/18 03:20:50;;;;;;;8.70;4.60;;;21.90;99.90;;;21.81;61.39;97306.69;5054607;28;20413;-69
2021/06/18 03:23:38;;;;;;;8.95;4.47;;;22.00;99.90;;;21.73;61.68;97310.03;5033251;28;20540;-69
2021/06/18 03:26:26;;;;;;;12.23;4.70;;;22.00;99.90;;;21.82;61.43;97309.19;5049208;28;20065;-70
2021/06/18 03:29:14;;;;;;;5.55;4.65;;;21.90;99.90;;;21.67;62.10;97305.34;5040873;28;20037;-69
2021/06/18 03:32:03;;;;;;;6.93;4.32;;;22.00;99.90;;;21.72;61.79;97297.81;5045562;28;20052;-69
2021/06/18 03:34:52;;;;;;;9.82;4.60;;;22.00;99.90;;;21.70;61.90;97310.34;5045485;28;20128;-69
2021/06/18 03:37:39;;;;;;;8.05;4.53;;;22.00;99.90;;;21.65;62.25;97307.28;5042749;28;20453;-69
2021/06/18 03:40:27;;;;;;;6.40;4.70;;;22.00;99.90;;;21.63;62.37;97317.16;5028805;28;20064;-69
2021/06/18 03:43:15;;;;;;;8.55;4.63;;;22.00;99.90;;;21.59;62.89;97319.22;5047204;28;20100;-69
2021/06/18 03:46:06;;;;;;;10.30;5.15;;;22.00;99.90;;;21.38;63.87;97322.00;5033942;28;20371;-69
2021/06/18 03:48:56;;;;;;;6.82;5.25;;;22.00;99.90;;;21.37;64.02;97319.50;5047817;28;20504;-69
2021/06/18 03:51:43;;;;;;;9.23;5.25;;;21.90;99.90;;;21.38;64.05;97321.16;5045904;28;20452;-69
2021/06/18 03:54:32;;;;;;;8.77;5.20;;;21.90;99.90;;;21.27;64.87;97325.59;5040359;28;20072;-69
2021/06/18 03:57:20;;;;;;;8.30;4.63;;;22.00;99.90;;;21.39;64.41;97321.00;5033674;28;20057;-69
2021/06/18 04:00:09;;;;;;;6.78;5.00;;;22.00;99.90;;;21.44;64.44;97318.84;5045936;28;20088;-69
2021/06/18 04:03:00;;;;;;;6.97;4.95;;;22.00;99.90;;;21.43;64.89;97321.63;5046757;28;20064;-69
2021/06/18 04:05:50;;;;;;;6.57;4.85;;;21.90;99.90;;;21.61;64.09;97324.38;5048613;28;20052;-67
2021/06/18 04:08:38;;;;;;;7.90;5.03;;;22.00;99.90;;;21.60;64.10;97320.91;5035822;28;20041;-69
2021/06/18 04:11:25;;;;;;;7.13;5.03;;;22.00;99.90;;;21.74;63.50;97322.28;5048037;28;20044;-67
2021/06/18 04:14:14;;;;;;;8.50;5.15;;;22.10;99.90;;;21.75;63.89;97328.41;5044228;28;20447;-69
2021/06/18 04:17:06;;;;;;;7.80;4.75;;;22.00;99.90;;;21.82;63.70;97316.28;5048213;28;20050;-69
2021/06/18 04:19:54;;;;;;;7.20;4.72;;;22.10;99.90;;;21.88;63.35;97326.28;5048269;28;20122;-69
2021/06/18 04:22:42;;;;;;;8.90;5.20;;;22.20;99.90;;;21.68;64.59;97328.13;5034588;28;20052;-69
2021/06/18 04:25:29;;;;;;;12.07;4.63;;;22.20;99.90;;;21.82;64.10;97319.75;5049767;28;20077;-69
2021/06/18 04:28:16;;;;;;;7.53;4.97;;;22.20;99.90;;;21.79;64.96;97322.69;5050078;28;20464;-68
2021/06/18 04:31:05;;;;;;;8.43;4.90;;;22.30;99.90;;;21.95;63.86;97319.47;5043147;28;20056;-69
2021/06/18 04:33:53;;;;;;;7.35;4.55;;;22.30;99.90;;;21.93;63.32;97314.31;5047710;28;20045;-69
2021/06/18 04:36:41;;;;;;;6.75;4.70;;;22.50;99.90;;;22.18;63.96;97311.19;5044902;28;20167;-69
2021/06/18 04:39:28;;;;;;;7.93;4.53;;;22.60;99.90;;;21.95;64.83;97310.69;5046040;28;20037;-69
2021/06/18 04:42:16;;;;;;;5.97;3.83;;;22.60;99.90;;;22.25;62.36;97307.00;5048301;28;20138;-69
2021/06/18 04:45:06;;;;;;;6.13;4.40;;;22.80;99.90;;;22.16;62.50;97308.69;5048426;28;20033;-69
2021/06/18 04:47:55;;;;;;;6.43;3.30;;;22.80;99.90;;;22.37;62.07;97299.72;5047215;28;20440;-68
2021/06/18 04:50:47;;;;;;;8.95;4.05;;;23.00;99.90;;;22.40;61.93;97296.78;5042033;28;20358;-68
2021/06/18 04:53:35;;;;;;;5.30;3.45;;;23.00;99.90;;;22.49;61.63;97283.53;5046793;28;20501;-69
2021/06/18 04:56:22;;;;;;;5.30;3.55;;;23.10;99.90;;;22.50;61.36;97273.78;5025094;28;20045;-69
2021/06/18 04:59:10;;;;;;;7.53;3.65;;;23.20;99.90;;;22.61;60.99;97278.88;5024732;28;20501;-68
2021/06/18 05:01:57;;;;;;;7.07;3.53;;;23.30;99.90;;;22.76;61.46;97269.44;5044951;28;20064;-69
2021/06/18 05:04:44;;;;;;;7.30;3.80;;;23.40;99.90;;;22.79;60.82;97275.44;5037974;28;20033;-70
2021/06/18 05:07:32;;;;;;;11.02;3.60;;;23.40;99.90;;;22.94;60.72;97269.47;5037518;28;20041;-69
2021/06/18 05:10:20;;;;;;;9.10;3.50;;;23.60;99.90;;;23.10;60.46;97263.50;5050515;28;20497;-69
2021/06/18 05:13:08;;;;;;;6.47;3.10;;;23.80;99.90;;;23.22;60.88;97253.53;5050256;28;20049;-67
2021/06/18 05:15:56;;;;;;;6.30;3.58;;;24.00;99.90;;;23.01;61.74;97253.00;5036572;28;20109;-69
2021/06/18 05:18:48;;;;;;;9.07;3.38;;;23.90;99.90;;;22.86;61.71;97237.63;5042881;28;20340;-68
2021/06/18 05:21:35;;;;;;;8.18;3.22;;;23.70;99.90;;;23.03;61.88;97235.97;5051903;28;20041;-67
2021/06/18 05:24:23;;;;;;;10.27;4.22;;;23.80;99.90;;;23.20;62.13;97236.13;5049443;28;20158;-67
2021/06/18 05:27:10;;;;;;;5.43;3.42;;;23.90;99.90;;;23.36;61.62;97241.56;5052068;28;20040;-69
2021/06/18 05:29:57;;;;;;;6.15;3.70;;;24.10;99.90;;;23.52;61.12;97241.69;5033852;28;20044;-66
2021/06/18 05:32:46;;;;;;;6.28;3.50;;;24.20;99.90;;;23.55;61.48;97232.59;5050909;28;20033;-68
2021/06/18 05:35:33;;;;;;;7.30;3.88;;;24.40;99.90;;;23.66;61.03;97234.16;5046491;28;20087;-68
2021/06/18 05:38:21;;;;;;;7.13;4.35;;;24.50;99.90;;;23.88;60.08;97235.44;5049824;28;20072;-65
2021/06/18 05:41:08;;;;;;;7.13;3.95;;;24.70;99.90;;;24.08;59.83;97236.06;5049550;28;20073;-66
2021/06/18 05:43:55;;;;;;;8.75;4.05;;;24.90;99.90;;;24.28;58.14;97231.34;5042557;28;20040;-69
2021/06/18 05:46:42;;;;;;;4.63;2.90;;;25.10;99.90;;;24.51;57.92;97240.41;5047537;28;20443;-69
2021/06/18 05:49:30;;;;;;;6.35;3.08;;;25.40;99.90;;;24.83;56.33;97244.13;5046910;28;20176;-66
2021/06/18 05:52:17;;;;;;;6.88;3.33;;;25.50;99.90;;;24.84;56.06;97240.50;5044800;28;20473;-67
2021/06/18 05:55:06;;;;;;;4.75;2.75;;;25.70;99.90;;;24.96;55.34;97244.50;5047713;28;20037;-67
2021/06/18 05:57:53;;;;;;;7.03;2.88;;;25.90;99.90;;;25.21;55.51;97244.53;5050322;28;20410;-67
2021/06/18 06:00:42;;;;;;;4.05;2.58;;;26.10;99.90;;;25.19;56.20;97244.69;5050305;28;20037;-67
2021/06/18 06:03:30;;;;;;;4.15;2.72;;;26.20;99.90;;;25.42;55.91;97246.69;5049953;28;20048;-67
2021/06/18 06:06:17;;;;;;;4.47;2.70;;;26.30;99.90;;;25.44;55.53;97245.53;5046926;28;20060;-67
2021/06/18 06:09:05;;;;;;;9.02;3.33;;;26.40;99.90;;;25.19;54.45;97244.69;5052445;28;20537;-69
2021/06/18 06:11:52;;;;;;;10.93;3.08;;;26.30;99.90;;;25.20;53.52;97248.19;5047541;28;20041;-67
2021/06/18 06:14:40;;;;;;;7.70;3.13;;;26.10;99.90;;;25.34;54.58;97249.34;5049113;28;20083;-66
2021/06/18 06:17:27;;;;;;;10.50;3.50;;;26.20;99.90;;;25.05;52.50;97240.03;5049529;28;20155;-67
2021/06/18 06:20:16;;;;;;;8.52;3.05;;;26.00;99.90;;;25.33;53.33;97237.88;5049207;28;20587;-67
2021/06/18 06:23:03;;;;;;;6.55;3.13;;;26.10;99.90;;;25.36;53.19;97253.53;5050390;28;20087;-67
2021/06/18 06:25:51;;;;;;;10.77;3.63;;;26.20;99.90;;;25.35;51.21;97256.34;5049116;28;20055;-68
2021/06/18 06:28:38;;;;;;;7.68;3.20;;;26.20;99.90;;;25.58;52.64;97273.25;5051126;28;20041;-67
2021/06/18 06:31:25;;;;;;;9.07;3.13;;;26.40;99.90;;;25.42;52.50;97274.09;5049545;28;20489;-66
2021/06/18 06:34:13;;;;;;;8.38;3.55;;;26.50;99.90;;;25.45;52.77;97278.25;5049431;28;20052;-67
2021/06/18 06:37:00;;;;;;;6.13;3.10;;;26.80;99.90;;;25.85;50.79;97290.66;5049214;28;20055;-67
2021/06/18 06:39:47;;;;;;;4.72;2.95;;;26.90;99.90;;;26.36;50.31;97289.56;5047703;28;21981;-67
2021/06/18 06:42:35;;;;;;;7.50;3.38;;;27.10;99.90;;;26.43;48.79;97293.19;5049791;28;20099;-67
2021/06/18 06:45:23;;;;;;;9.52;2.97;;;27.40;99.90;;;26.79;47.01;97284.75;5048150;28;20041;-68
2021/06/18 06:48:10;;;;;;;5.65;3.00;;;27.60;99.90;;;27.25;46.61;97284.81;5034706;28;20067;-67
2021/06/18 06:50:58;;;;;;;9.90;3.13;;;28.10;99.90;;;27.26;46.55;97291.81;5051612;28;20397;-67
2021/06/18 06:53:45;;;;;;;6.60;2.42;;;28.00;99.90;;;27.27;46.06;97291.63;5048479;28;20063;-67
2021/06/18 06:56:33;;;;;;;8.18;2.55;;;28.20;99.90;;;27.93;45.11;97291.09;5035442;28;20425;-67
2021/06/18 06:59:20;;;;;;;8.65;3.05;;;28.50;99.90;;;27.55;45.26;97291.06;5051324;28;20049;-68
2021/06/18 07:02:08;;;;;;;7.78;2.50;;;28.70;99.90;;;27.49;46.24;97294.47;5047751;28;20515;-67
2021/06/18 07:04:55;;;;;;;11.88;3.33;;;28.60;99.90;;;27.73;45.22;97301.41;5045316;28;20033;-67
2021/06/18 07:07:43;;;;;;;4.72;2.35;;;28.90;99.90;;;27.73;44.23;97310.28;5041119;28;20094;-68
2021/06/18 07:10:30;;;;;;;5.20;2.50;;;28.70;99.90;;;27.67;44.49;97299.50;5045883;28;20127;-67
2021/06/18 07:13:18;;;;;;;6.50;2.38;;;28.50;99.90;;;27.77;45.48;97305.38;5043831;28;20139;-67
2021/06/18 07:16:05;;;;;;;12.68;3.15;;;28.40;99.90;;;27.56;45.59;97305.25;5046823;28;20110;-67
2021/06/18 07:18:54;;;;;;;6.50;2.60;;;28.20;99.90;;;27.18;47.12;97311.31;5041436;28;20049;-68
2021/06/18 07:21:41;;;;;;;10.85;3.20;;;28.10;99.90;;;27.07;47.53;97307.25;5044150;28;20037;-68
2021/06/18 07:24:30;;;;;;;5.78;3.28;;;28.00;99.90;;;27.11;46.79;97313.84;5040734;28;20044;-68
2021/06/18 07:27:17;;;;;;;8.27;3.30;;;27.80;99.90;;;27.11;48.35;97316.50;5048369;28;20495;-67
2021/06/18 07:30:05;;;;;;;4.75;2.70;;;27.90;99.90;;;27.03;47.99;97307.78;5045246;28;20092;-67
2021/06/18 07:32:52;;;;;;;9.75;3.13;;;28.00;99.90;;;27.11;49.02;97310.38;5047099;28;20484;-68
2021/06/18 07:35:40;;;;;;;5.97;2.90;;;27.90;99.90;;;27.18;50.19;97313.97;5048613;28;20128;-68
2021/06/18 07:38:27;;;;;;;8.52;2.88;;;28.00;99.90;;;27.42;49.18;97317.53;5046611;28;20056;-68
2021/06/18 07:41:16;;;;;;;6.97;2.90;;;28.20;99.90;;;27.84;47.61;97321.53;5048452;28;20041;-68
2021/06/18 07:44:04;;;;;;;6.65;3.05;;;28.40;99.90;;;27.77;47.57;97324.06;5047257;28;20182;-67
2021/06/18 07:46:51;;;;;;;6.82;2.80;;;28.40;99.90;;;28.01;46.21;97322.19;5047067;28;20099;-68
2021/06/18 07:49:39;;;;;;;6.72;3.08;;;28.50;99.90;;;28.00;46.40;97324.03;5036965;28;20665;-68
2021/06/18 07:52:26;;;;;;;10.02;3.05;;;28.70;99.90;;;28.24;45.55;97322.16;5047228;28;20052;-68
2021/06/18 07:55:19;;;;;;;8.73;3.33;;;28.80;99.90;;;28.02;44.89;97322.03;5045841;28;20442;-67
2021/06/18 07:58:08;;;;;;;10.40;3.53;;;28.90;99.90;;;28.09;45.28;97319.44;5036147;28;20056;-67
2021/06/18 08:00:56;;;;;;;9.57;2.88;;;28.90;99.90;;;28.46;45.27;97325.72;5038810;28;20081;-67
2021/06/18 08:03:43;;;;;;;18.38;4.40;;;29.10;99.90;;;28.67;45.49;97322.31;5047966;28;20473;-68
2021/06/18 08:06:30;;;;;;;16.38;3.50;;;29.30;99.90;;;28.66;44.27;97315.34;5044498;28;20038;-67
2021/06/18 08:09:17;;;;;;;12.25;3.33;;;29.40;99.90;;;28.75;44.59;97316.88;5036493;28;20672;-67
2021/06/18 08:12:08;;;;;;;8.45;3.45;;;30.10;99.90;;;29.02;45.74;97315.34;5046196;28;20469;-68
2021/06/18 08:14:55;;;;;;;15.27;3.60;;;30.00;99.90;;;28.92;45.73;97318.34;5039099;28;20633;-67
2021/06/18 08:17:43;;;;;;;7.65;3.22;;;30.30;99.90;;;29.02;45.04;97320.69;5048640;28;20070;-69
2021/06/18 08:20:30;;;;;;;10.18;3.30;;;30.30;99.90;;;29.17;44.78;97320.66;5047246;28;20044;-68
2021/06/18 08:23:18;;;;;;;7.15;3.45;;;30.40;99.90;;;29.14;43.76;97321.06;5042466;28;20040;-68
2021/06/18 08:26:05;;;;;;;11.63;3.67;;;30.20;99.90;;;29.53;44.09;97319.81;5049551;28;20055;-69
2021/06/18 08:28:53;;;;;;;8.70;2.97;;;30.40;99.90;;;29.69;44.23;97330.25;5051139;28;20048;-68
2021/06/18 08:31:40;;;;;;;9.88;2.83;;;30.90;99.90;;;30.55;41.62;97331.91;5043429;28;20152;-68
2021/06/18 08:34:28;;;;;;;7.10;3.90;;;31.10;99.90;;;30.35;41.58;97331.81;5048458;28;20061;-68
2021/06/18 08:37:15;;;;;;;8.57;2.70;;;31.30;99.90;;;30.43;42.41;97316.41;5050038;28;20041;-69
2021/06/18 08:40:04;;;;;;;5.65;2.88;;;31.60;99.90;;;30.21;41.83;97317.47;5054955;28;20158;-69
2021/06/18 08:42:51;;;;;;;10.75;3.65;;;31.80;99.90;;;29.76;39.91;97315.09;5030531;28;20400;-69
2021/06/18 08:45:39;;;;;;;8.25;3.33;;;31.10;98.70;;;29.71;41.65;97316.69;5053368;28;20052;-68
2021/06/18 08:48:29;;;;;;;9.25;3.35;;;30.80;99.70;;;30.12;41.43;97310.63;5059547;28;20041;-69
2021/06/18 08:51:17;;;;;;;16.08;3.88;;;31.00;99.90;;;31.07;40.74;97306.41;5049524;28;20041;-69
2021/06/18 08:54:05;;;;;;;7.80;2.97;;;31.50;99.90;;;31.33;39.12;97310.97;5034142;28;20172;-69
2021/06/18 08:56:52;;;;;;;6.53;2.80;;;31.90;99.10;;;32.63;36.39;97311.34;5055353;28;20214;-69
2021/06/18 08:59:40;;;;;;;8.57;2.70;;;32.70;98.50;;;33.12;36.12;97318.00;5037474;28;20460;-69
2021/06/18 09:02:28;;;;;;;10.98;3.33;;;33.50;98.00;;;33.67;33.37;97314.75;5051714;28;20044;-69
2021/06/18 09:05:16;;;;;;;9.30;3.22;;;33.90;96.50;;;33.39;34.36;97312.47;5051540;28;20154;-69
2021/06/18 09:08:05;;;;;;;6.38;2.92;;;34.00;96.70;;;33.11;34.78;97307.44;5051372;28;20523;-71
2021/06/18 09:10:52;;;;;;;5.97;2.50;;;34.00;96.20;;;34.00;33.73;97310.13;5045801;28;20129;-68
2021/06/18 09:13:39;;;;;;;8.63;2.83;;;34.50;96.20;;;33.14;34.46;97301.63;5048278;28;20048;-71
2021/06/18 09:16:27;;;;;;;16.08;3.63;;;34.20;95.50;;;31.76;36.71;97307.94;5053885;28;20044;-70
2021/06/18 09:19:24;;;;;;;8.50;3.20;;;33.20;95.90;;;32.32;35.09;97305.84;5049130;28;20051;-70
2021/06/18 09:22:36;;;;;;;9.18;2.95;;;33.00;95.80;;;32.35;36.24;97310.81;5036720;28;20029;-70
2021/06/18 09:25:23;;;;;;;8.20;3.20;;;33.20;96.40;;;32.42;36.57;97314.28;5051482;28;20082;-70
2021/06/18 09:28:10;;;;;;;10.85;3.25;;;33.30;96.50;;;31.89;36.11;97309.81;5050905;28;20566;-69
2021/06/18 09:31:08;;;;;;;9.07;3.22;;;32.90;95.70;;;32.14;37.71;97312.72;5019990;28;20128;-70
2021/06/18 09:33:56;;;;;;;13.65;3.70;;;32.80;97.00;;;31.37;37.41;97319.44;5051664;28;20442;-68
2021/06/18 09:36:43;;;;;;;9.10;3.28;;;32.50;96.20;;;30.95;40.14;97322.25;5051234;28;20095;-70
2021/06/18 09:39:30;;;;;;;7.05;2.97;;;31.90;97.70;;;31.02;40.46;97327.63;5050328;28;20069;-70
2021/06/18 09:42:23;;;;;;;9.05;3.20;;;31.70;98.00;;;30.70;40.43;97329.94;5050630;28;20044;-68
2021/06/18 09:45:13;;;;;;;9.02;3.20;;;31.60;97.80;;;31.02;39.91;97336.47;5051039;28;20528;-68
2021/06/18 09:48:10;;;;;;;8.65;3.30;;;31.60;97.90;;;30.38;40.67;97328.72;5032558;28;20045;-69
2021/06/18 09:51:02;;;;;;;12.23;4.18;;;31.40;97.90;;;28.96;43.49;97340.16;5045731;28;20413;-68
2021/06/18 09:53:49;;;;;;;5.85;3.05;;;30.70;98.20;;;29.49;42.45;97342.59;5050247;28;20048;-70
2021/06/18 09:56:37;;;;;;;11.70;3.58;;;30.10;99.10;;;28.19;46.88;97348.53;5036473;28;20127;-68
2021/06/18 09:59:24;;;;;;;6.70;3.10;;;29.90;99.80;;;28.25;47.43;97350.47;5033037;28;20048;-68
2021/06/18 10:02:12;;;;;;;9.30;3.78;;;29.70;99.90;;;27.57;48.92;97352.22;5044338;28;20040;-70
2021/06/18 10:04:59;;;;;;;5.38;3.13;;;29.50;99.90;;;27.62;48.18;97358.69;5050800;28;20047;-70
2021/06/18 10:07:50;;;;;;;11.48;4.38;;;29.30;99.90;;;27.81;48.53;97360.03;5032533;28;20041;-70
2021/06/18 10:10:38;;;;;;;10.32;3.47;;;29.20;99.90;;;28.18;49.00;97354.91;5049748;28;20091;-70
2021/06/18 10:13:26;;;;;;;11.50;4.22;;;29.10;99.90;;;28.38;47.33;97352.53;5053685;28;20472;-68
2021/06/18 10:16:17;;;;;;;8.20;3.47;;;29.40;99.90;;;27.81;48.41;97351.22;5035492;28;20485;-68
2021/06/18 10:19:05;;;;;;;10.65;3.78;;;29.60;99.90;;;27.97;48.01;97339.59;5022902;28;20051;-68
2021/06/18 10:22:00;;;;;;;8.85;3.58;;;29.40;99.90;;;27.49;49.24;97339.78;5052176;28;20044;-68
2021/06/18 10:25:03;;;;;;;10.88;3.80;;;29.30;99.90;;;27.72;49.53;97334.44;5035239;28;20448;-68
2021/06/18 10:27:53;;;;;;;9.90;4.13;;;29.10;99.90;;;27.59;50.83;97328.88;5022484;28;20047;-68
2021/06/18 10:31:03;;;;;;;10.73;4.32;;;29.00;99.90;;;27.37;50.10;97328.72;5033067;28;20167;-68
2021/06/18 10:34:06;;;;;;;8.83;3.67;;;29.00;99.90;;;28.38;49.35;97310.63;5034300;28;20037;-68
2021/06/18 10:37:22;;;;;;;9.32;3.85;;;29.20;99.90;;;28.39;49.54;97303.44;5040590;28;20170;-68
2021/06/18 10:40:12;;;;;;;7.57;3.42;;;29.20;99.90;;;28.35;49.37;97293.16;5044797;28;20098;-68
2021/06/18 10:43:13;;;;;;;11.45;3.63;;;29.40;99.90;;;28.93;49.23;97290.59;5055901;28;20045;-68
2021/06/18 10:46:01;;;;;;;7.03;3.10;;;29.70;99.90;;;29.52;47.71;97292.25;5049451;28;20044;-68
2021/06/18 10:48:55;;;;;;;9.30;3.25;;;30.20;99.90;;;31.23;45.39;97289.94;5049773;28;20336;-68
2021/06/18 10:51:49;;;;;;;13.38;4.35;;;31.20;99.90;;;31.33;43.27;97291.38;5051704;28;20132;-68
2021/06/18 10:55:01;;;;;;;10.30;3.30;;;32.40;99.90;;;32.09;40.13;97294.53;5046183;28;20052;-69
2021/06/18 10:57:53;;;;;;;7.25;3.33;;;33.00;98.80;;;32.62;40.07;97288.22;5034384;28;20214;-68
2021/06/18 11:00:40;;;;;;;7.25;3.35;;;33.90;98.60;;;34.00;37.93;97286.72;5035506;28;20041;-67
2021/06/18 11:03:56;;;;;;;10.35;3.60;;;34.60;98.30;;;34.70;35.34;97289.13;5044380;28;20052;-68
2021/06/18 11:06:50;;;;;;;13.13;3.78;;;35.40;96.60;;;33.59;36.14;97282.72;5048717;28;20149;-67
2021/06/18 11:09:55;;;;;;;11.07;3.05;;;35.00;95.90;;;33.42;37.71;97284.28;5044085;28;20080;-67
2021/06/18 11:13:00;;;;;;;6.97;3.53;;;35.10;96.70;;;33.63;36.35;97297.41;5036734;28;20477;-67
2021/06/18 11:15:47;;;;;;;9.23;3.35;;;34.90;95.80;;;33.87;36.77;97295.75;5038829;28;20049;-67
2021/06/18 11:18:37;;;;;;;8.93;4.10;;;34.60;96.70;;;34.36;34.53;97294.03;5048891;28;20063;-67
2021/06/18 11:21:24;;;;;;;9.68;4.05;;;34.90;95.70;;;34.57;34.38;97294.63;5064066;28;20040;-67
2021/06/18 11:24:31;;;;;;;9.43;4.03;;;35.20;95.40;;;35.14;34.42;97289.78;5031688;28;20179;-67
2021/06/18 11:27:25;;;;;;;9.50;4.50;;;35.80;95.70;;;35.76;34.01;97286.78;5046304;28;20103;-67
2021/06/18 11:30:30;;;;;;;11.95;3.95;;;36.30;95.40;;;35.04;35.40;97283.28;5041422;28;20037;-67
2021/06/18 11:33:38;;;;;;;9.02;3.83;;;35.70;95.90;;;35.01;33.49;97284.56;5061315;28;20107;-67
2021/06/18 11:36:33;;;;;;;7.68;3.10;;;35.40;94.80;;;35.59;34.20;97280.41;5051857;28;20500;-67
2021/06/18 11:39:23;;;;;;;8.63;4.38;;;36.00;95.20;;;35.76;33.95;97283.25;5044278;28;20179;-68
2021/06/18 11:42:10;;;;;;;9.70;3.58;;;35.80;95.60;;;36.17;32.81;97286.94;5031214;28;20486;-67
2021/06/18 11:44:57;;;;;;;8.57;3.40;;;36.60;94.40;;;36.94;31.06;97283.16;5036883;28;20389;-67
2021/06/18 11:47:45;;;;;;;8.60;3.83;;;36.90;93.70;;;35.73;32.63;97284.56;5051482;28;20106;-67
2021/06/18 11:50:36;;;;;;;7.70;4.18;;;37.00;93.60;;;36.99;31.00;97281.34;5049040;28;20072;-67